createdAt,value
2018-12-22T00:00:04.835Z,1009.34685462
2018-12-22T00:00:17.212Z,1009.34685462
2018-12-22T00:00:29.584Z,1009.34685462
2018-12-22T00:00:41.940Z,1009.34685462
2018-12-22T00:00:54.288Z,1009.34685462
2018-12-22T00:01:06.632Z,1009.34685462
2018-12-22T00:01:18.972Z,1009.34685462
2018-12-22T00:01:31.325Z,1009.34685462
2018-12-22T00:01:43.670Z,1009.34685462
2018-12-22T00:01:56.193Z,1009.34685462
2018-12-22T00:02:08.532Z,1009.27912685
2018-12-22T00:02:20.899Z,1009.27912685
2018-12-22T00:02:33.241Z,1009.27912685
2018-12-22T00:02:45.615Z,1009.27912685
2018-12-22T00:02:57.953Z,1009.27912685
2018-12-22T00:03:10.300Z,1009.3807185
2018-12-22T00:03:22.652Z,1009.3807185
2018-12-22T00:03:34.992Z,1009.3807185
2018-12-22T00:03:47.356Z,1009.3807185
2018-12-22T00:03:59.750Z,1009.3807185
2018-12-22T00:04:12.081Z,1009.34685462
2018-12-22T00:04:24.424Z,1009.34685462
2018-12-22T00:04:36.846Z,1009.34685462
2018-12-22T00:04:49.175Z,1009.34685462
2018-12-22T00:05:01.522Z,1009.41458238
2018-12-22T00:05:13.874Z,1009.41458238
2018-12-22T00:05:26.230Z,1009.41458238
2018-12-22T00:05:38.590Z,1009.41458238
2018-12-22T00:05:50.944Z,1009.41458238
2018-12-22T00:06:03.288Z,1009.48231014
2018-12-22T00:06:15.789Z,1009.48231014
2018-12-22T00:06:28.109Z,1009.48231014
2018-12-22T00:06:40.446Z,1009.48231014
2018-12-22T00:06:52.835Z,1009.48231014
2018-12-22T00:07:05.258Z,1009.58390179
2018-12-22T00:07:17.602Z,1009.58390179
2018-12-22T00:07:29.953Z,1009.58390179
2018-12-22T00:07:42.282Z,1009.58390179
2018-12-22T00:07:54.609Z,1009.58390179
2018-12-22T00:08:06.967Z,1009.44844626
2018-12-22T00:08:19.538Z,1009.44844626
2018-12-22T00:08:31.892Z,1009.44844626
2018-12-22T00:08:44.231Z,1009.44844626
2018-12-22T00:08:56.557Z,1009.44844626
2018-12-22T00:09:08.898Z,1009.3807185
2018-12-22T00:09:21.237Z,1009.3807185
2018-12-22T00:09:33.612Z,1009.3807185
2018-12-22T00:09:45.960Z,1009.3807185
2018-12-22T00:09:58.296Z,1009.3807185
2018-12-22T00:10:10.732Z,1009.48231014
2018-12-22T00:10:23.109Z,1009.48231014
2018-12-22T00:10:36.944Z,1009.48231014
2018-12-22T00:10:49.296Z,1009.48231014
2018-12-22T00:11:01.647Z,1009.41458238
2018-12-22T00:11:13.988Z,1009.41458238
2018-12-22T00:11:26.416Z,1009.41458238
2018-12-22T00:11:38.759Z,1009.41458238
2018-12-22T00:11:51.099Z,1009.41458238
2018-12-22T00:12:03.454Z,1009.51617402
2018-12-22T00:12:15.815Z,1009.51617402
2018-12-22T00:12:28.162Z,1009.51617402
2018-12-22T00:12:40.498Z,1009.51617402
2018-12-22T00:12:52.923Z,1009.51617402
2018-12-22T00:13:05.268Z,1009.34685462
2018-12-22T00:13:17.647Z,1009.34685462
2018-12-22T00:13:30.017Z,1009.34685462
2018-12-22T00:13:42.449Z,1009.34685462
2018-12-22T00:13:54.819Z,1009.34685462
2018-12-22T00:14:07.169Z,1009.51617402
2018-12-22T00:14:19.510Z,1009.51617402
2018-12-22T00:14:31.870Z,1009.51617402
2018-12-22T00:14:44.223Z,1009.51617402
2018-12-22T00:14:56.760Z,1009.51617402
2018-12-22T00:15:09.103Z,1009.44844626
2018-12-22T00:15:21.443Z,1009.44844626
2018-12-22T00:15:33.798Z,1009.44844626
2018-12-22T00:15:46.147Z,1009.44844626
2018-12-22T00:15:58.482Z,1009.44844626
2018-12-22T00:16:10.823Z,1009.48231014
2018-12-22T00:16:23.172Z,1009.48231014
2018-12-22T00:16:35.521Z,1009.48231014
2018-12-22T00:16:47.849Z,1009.48231014
2018-12-22T00:17:00.475Z,1009.48231014
2018-12-22T00:17:12.908Z,1009.44844626
2018-12-22T00:17:25.268Z,1009.44844626
2018-12-22T00:17:37.712Z,1009.44844626
2018-12-22T00:17:50.051Z,1009.44844626
2018-12-22T00:18:02.406Z,1009.41458238
2018-12-22T00:18:14.963Z,1009.41458238
2018-12-22T00:18:27.338Z,1009.41458238
2018-12-22T00:18:39.693Z,1009.41458238
2018-12-22T00:18:52.048Z,1009.41458238
2018-12-22T00:19:04.394Z,1009.3807185
2018-12-22T00:19:16.747Z,1009.3807185
2018-12-22T00:19:29.125Z,1009.3807185
2018-12-22T00:19:41.455Z,1009.3807185
2018-12-22T00:19:53.858Z,1009.3807185
2018-12-22T00:20:06.207Z,1009.34685462
2018-12-22T00:20:18.593Z,1009.34685462
2018-12-22T00:20:30.940Z,1009.34685462
2018-12-22T00:20:43.282Z,1009.34685462
2018-12-22T00:20:55.618Z,1009.34685462
2018-12-22T00:21:07.966Z,1009.3807185
2018-12-22T00:21:20.327Z,1009.3807185
2018-12-22T00:21:32.683Z,1009.3807185
2018-12-22T00:21:45.024Z,1009.3807185
2018-12-22T00:21:57.372Z,1009.3807185
2018-12-22T00:22:09.739Z,1009.48231014
2018-12-22T00:22:22.084Z,1009.48231014
2018-12-22T00:22:34.449Z,1009.48231014
2018-12-22T00:22:46.784Z,1009.48231014
2018-12-22T00:22:59.127Z,1009.48231014
2018-12-22T00:23:11.481Z,1009.34685462
2018-12-22T00:23:23.842Z,1009.34685462
2018-12-22T00:23:36.204Z,1009.34685462
2018-12-22T00:23:48.652Z,1009.34685462
2018-12-22T00:24:00.985Z,1009.3807185
2018-12-22T00:24:13.432Z,1009.3807185
2018-12-22T00:24:25.946Z,1009.3807185
2018-12-22T00:24:38.303Z,1009.3807185
2018-12-22T00:24:50.643Z,1009.3807185
2018-12-22T00:25:02.996Z,1009.48231014
2018-12-22T00:25:15.342Z,1009.48231014
2018-12-22T00:25:27.699Z,1009.48231014
2018-12-22T00:25:40.047Z,1009.48231014
2018-12-22T00:25:52.814Z,1009.48231014
2018-12-22T00:26:05.155Z,1009.44844626
2018-12-22T00:26:17.696Z,1009.44844626
2018-12-22T00:26:30.053Z,1009.44844626
2018-12-22T00:26:42.476Z,1009.44844626
2018-12-22T00:26:54.900Z,1009.44844626
2018-12-22T00:27:07.354Z,1009.44844626
2018-12-22T00:27:19.691Z,1009.44844626
2018-12-22T00:27:32.042Z,1009.44844626
2018-12-22T00:27:46.611Z,1009.44844626
2018-12-22T00:27:58.988Z,1009.44844626
2018-12-22T00:28:11.385Z,1009.3807185
2018-12-22T00:28:32.065Z,1009.3807185
2018-12-22T00:28:44.404Z,1009.3807185
2018-12-22T00:28:56.753Z,1009.3807185
2018-12-22T00:29:09.127Z,1009.58390179
2018-12-22T00:29:21.492Z,1009.58390179
2018-12-22T00:29:33.820Z,1009.58390179
2018-12-22T00:29:46.162Z,1009.58390179
2018-12-22T00:29:58.506Z,1009.58390179
2018-12-22T00:30:10.841Z,1009.44844626
2018-12-22T00:30:23.271Z,1009.44844626
2018-12-22T00:30:35.611Z,1009.44844626
2018-12-22T00:30:48.036Z,1009.44844626
2018-12-22T00:31:00.429Z,1009.44844626
2018-12-22T00:31:12.828Z,1009.51617402
2018-12-22T00:31:25.271Z,1009.51617402
2018-12-22T00:31:37.617Z,1009.51617402
2018-12-22T00:31:50.051Z,1009.51617402
2018-12-22T00:32:02.402Z,1009.51617402
2018-12-22T00:32:14.740Z,1009.51617402
2018-12-22T00:32:27.196Z,1009.51617402
2018-12-22T00:32:39.537Z,1009.51617402
2018-12-22T00:32:51.875Z,1009.51617402
2018-12-22T00:33:04.230Z,1009.58390179
2018-12-22T00:33:18.010Z,1009.58390179
2018-12-22T00:33:30.385Z,1009.58390179
2018-12-22T00:33:42.753Z,1009.58390179
2018-12-22T00:33:55.095Z,1009.58390179
2018-12-22T00:34:07.443Z,1009.61776567
2018-12-22T00:34:19.786Z,1009.61776567
2018-12-22T00:34:32.236Z,1009.61776567
2018-12-22T00:34:44.599Z,1009.61776567
2018-12-22T00:34:56.927Z,1009.61776567
2018-12-22T00:35:09.285Z,1009.48231014
2018-12-22T00:35:21.622Z,1009.48231014
2018-12-22T00:35:33.964Z,1009.48231014
2018-12-22T00:35:46.303Z,1009.48231014
2018-12-22T00:35:58.718Z,1009.48231014
2018-12-22T00:36:11.062Z,1009.58390179
2018-12-22T00:36:23.522Z,1009.58390179
2018-12-22T00:36:35.941Z,1009.58390179
2018-12-22T00:36:48.281Z,1009.58390179
2018-12-22T00:37:00.627Z,1009.58390179
2018-12-22T00:37:12.945Z,1009.55003791
2018-12-22T00:37:25.408Z,1009.55003791
2018-12-22T00:37:37.775Z,1009.55003791
2018-12-22T00:37:50.121Z,1009.55003791
2018-12-22T00:38:02.573Z,1009.65162955
2018-12-22T00:38:14.902Z,1009.65162955
2018-12-22T00:38:27.309Z,1009.65162955
2018-12-22T00:38:39.667Z,1009.65162955
2018-12-22T00:38:52.018Z,1009.65162955
2018-12-22T00:39:04.352Z,1009.61776567
2018-12-22T00:39:16.798Z,1009.61776567
2018-12-22T00:39:29.132Z,1009.61776567
2018-12-22T00:39:41.482Z,1009.61776567
2018-12-22T00:39:53.934Z,1009.61776567
2018-12-22T00:40:06.344Z,1009.65162955
2018-12-22T00:40:18.677Z,1009.65162955
2018-12-22T00:40:31.029Z,1009.65162955
2018-12-22T00:40:43.380Z,1009.65162955
2018-12-22T00:40:55.716Z,1009.65162955
2018-12-22T00:41:08.320Z,1009.61776567
2018-12-22T00:41:20.657Z,1009.61776567
2018-12-22T00:41:33.005Z,1009.61776567
2018-12-22T00:41:45.345Z,1009.61776567
2018-12-22T00:41:57.783Z,1009.61776567
2018-12-22T00:42:10.120Z,1009.68549343
2018-12-22T00:42:22.477Z,1009.68549343
2018-12-22T00:42:34.845Z,1009.68549343
2018-12-22T00:42:47.307Z,1009.68549343
2018-12-22T00:42:59.645Z,1009.68549343
2018-12-22T00:43:11.990Z,1009.78708508
2018-12-22T00:43:24.338Z,1009.78708508
2018-12-22T00:43:36.707Z,1009.78708508
2018-12-22T00:43:49.058Z,1009.78708508
2018-12-22T00:44:01.403Z,1009.65162955
2018-12-22T00:44:13.759Z,1009.65162955
2018-12-22T00:44:26.094Z,1009.65162955
2018-12-22T00:44:38.453Z,1009.65162955
2018-12-22T00:44:50.798Z,1009.65162955
2018-12-22T00:45:03.146Z,1009.71935731
2018-12-22T00:45:15.628Z,1009.71935731
2018-12-22T00:45:27.981Z,1009.71935731
2018-12-22T00:45:40.420Z,1009.71935731
2018-12-22T00:45:52.775Z,1009.71935731
2018-12-22T00:46:05.100Z,1009.7532212
2018-12-22T00:46:17.447Z,1009.7532212
2018-12-22T00:46:29.778Z,1009.7532212
2018-12-22T00:46:42.124Z,1009.7532212
2018-12-22T00:46:54.455Z,1009.7532212
2018-12-22T00:47:06.893Z,1009.78708508
2018-12-22T00:47:19.228Z,1009.78708508
2018-12-22T00:47:31.562Z,1009.78708508
2018-12-22T00:47:43.905Z,1009.78708508
2018-12-22T00:47:56.265Z,1009.78708508
2018-12-22T00:48:08.622Z,1009.78708508
2018-12-22T00:48:20.983Z,1009.78708508
2018-12-22T00:48:33.337Z,1009.78708508
2018-12-22T00:48:45.685Z,1009.78708508
2018-12-22T00:48:58.047Z,1009.78708508
2018-12-22T00:49:10.401Z,1009.7532212
2018-12-22T00:49:22.981Z,1009.7532212
2018-12-22T00:49:35.319Z,1009.7532212
2018-12-22T00:49:47.650Z,1009.7532212
2018-12-22T00:50:00.069Z,1009.7532212
2018-12-22T00:50:12.548Z,1009.88867672
2018-12-22T00:50:24.892Z,1009.88867672
2018-12-22T00:50:37.253Z,1009.88867672
2018-12-22T00:50:49.589Z,1009.88867672
2018-12-22T00:51:01.932Z,1009.95640449
2018-12-22T00:51:14.268Z,1009.95640449
2018-12-22T00:51:26.687Z,1009.95640449
2018-12-22T00:51:39.063Z,1009.95640449
2018-12-22T00:51:51.407Z,1009.95640449
2018-12-22T00:52:03.738Z,1009.88867672
2018-12-22T00:52:16.077Z,1009.88867672
2018-12-22T00:52:28.997Z,1009.88867672
2018-12-22T00:52:41.344Z,1009.88867672
2018-12-22T00:52:53.681Z,1009.88867672
2018-12-22T00:53:06.120Z,1009.88867672
2018-12-22T00:53:18.473Z,1009.88867672
2018-12-22T00:53:30.826Z,1009.88867672
2018-12-22T00:53:43.243Z,1009.88867672
2018-12-22T00:53:55.574Z,1009.88867672
2018-12-22T00:54:07.932Z,1009.85481284
2018-12-22T00:54:22.573Z,1009.85481284
2018-12-22T00:54:34.929Z,1009.85481284
2018-12-22T00:54:47.279Z,1009.85481284
2018-12-22T00:54:59.712Z,1009.85481284
2018-12-22T00:55:12.221Z,1009.88867672
2018-12-22T00:55:24.555Z,1009.88867672
2018-12-22T00:55:36.887Z,1009.88867672
2018-12-22T00:55:49.225Z,1009.88867672
2018-12-22T00:56:01.561Z,1009.85481284
2018-12-22T00:56:13.902Z,1009.85481284
2018-12-22T00:56:26.319Z,1009.85481284
2018-12-22T00:56:38.678Z,1009.85481284
2018-12-22T00:56:51.238Z,1009.85481284
2018-12-22T00:57:03.576Z,1009.95640449
2018-12-22T00:57:15.985Z,1009.95640449
2018-12-22T00:57:28.322Z,1009.95640449
2018-12-22T00:57:40.664Z,1009.95640449
2018-12-22T00:57:52.998Z,1009.95640449
2018-12-22T00:58:05.398Z,1009.9225406
2018-12-22T00:58:17.874Z,1009.9225406
2018-12-22T00:58:38.491Z,1009.9225406
2018-12-22T00:58:50.864Z,1009.9225406
2018-12-22T00:59:03.214Z,1009.99026837
2018-12-22T00:59:15.547Z,1009.99026837
2018-12-22T00:59:27.884Z,1009.99026837
2018-12-22T00:59:40.231Z,1009.99026837
2018-12-22T00:59:52.570Z,1009.99026837
2018-12-22T01:00:04.917Z,1009.88867672
2018-12-22T01:00:19.460Z,1009.88867672
2018-12-22T01:00:31.955Z,1009.88867672
2018-12-22T01:00:44.438Z,1009.88867672
2018-12-22T01:00:56.806Z,1009.88867672
2018-12-22T01:01:09.159Z,1010.05799613
2018-12-22T01:01:21.552Z,1010.05799613
2018-12-22T01:01:33.892Z,1010.05799613
2018-12-22T01:01:46.238Z,1010.05799613
2018-12-22T01:01:58.618Z,1010.05799613
2018-12-22T01:02:10.998Z,1009.99026837
2018-12-22T01:02:23.379Z,1009.99026837
2018-12-22T01:02:35.721Z,1009.99026837
2018-12-22T01:02:48.079Z,1009.99026837
2018-12-22T01:03:00.467Z,1009.99026837
2018-12-22T01:03:12.817Z,1010.02413225
2018-12-22T01:03:25.178Z,1010.02413225
2018-12-22T01:03:37.543Z,1010.02413225
2018-12-22T01:03:49.896Z,1010.02413225
2018-12-22T01:04:02.249Z,1010.09186001
2018-12-22T01:04:14.624Z,1010.09186001
2018-12-22T01:04:26.966Z,1010.09186001
2018-12-22T01:04:39.406Z,1010.09186001
2018-12-22T01:04:51.750Z,1010.09186001
2018-12-22T01:05:04.115Z,1010.12572389
2018-12-22T01:05:16.447Z,1010.12572389
2018-12-22T01:05:28.797Z,1010.12572389
2018-12-22T01:05:41.152Z,1010.12572389
2018-12-22T01:05:53.498Z,1010.12572389
2018-12-22T01:06:05.853Z,1010.12572389
2018-12-22T01:06:18.187Z,1010.12572389
2018-12-22T01:06:30.631Z,1010.12572389
2018-12-22T01:06:42.988Z,1010.12572389
2018-12-22T01:06:57.280Z,1010.12572389
2018-12-22T01:07:09.627Z,1010.19345166
2018-12-22T01:07:22.016Z,1010.19345166
2018-12-22T01:07:34.352Z,1010.19345166
2018-12-22T01:07:46.708Z,1010.19345166
2018-12-22T01:07:59.071Z,1010.19345166
2018-12-22T01:08:11.427Z,1010.15958777
2018-12-22T01:08:23.908Z,1010.15958777
2018-12-22T01:08:36.374Z,1010.15958777
2018-12-22T01:08:48.723Z,1010.15958777
2018-12-22T01:09:01.072Z,1010.22731554
2018-12-22T01:09:13.431Z,1010.22731554
2018-12-22T01:09:25.770Z,1010.22731554
2018-12-22T01:09:38.237Z,1010.22731554
2018-12-22T01:09:50.587Z,1010.22731554
2018-12-22T01:10:02.953Z,1010.22731554
2018-12-22T01:10:15.308Z,1010.22731554
2018-12-22T01:10:27.646Z,1010.22731554
2018-12-22T01:10:39.988Z,1010.22731554
2018-12-22T01:10:52.334Z,1010.22731554
2018-12-22T01:11:04.681Z,1010.19345166
2018-12-22T01:11:17.018Z,1010.19345166
2018-12-22T01:11:29.352Z,1010.19345166
2018-12-22T01:11:41.793Z,1010.19345166
2018-12-22T01:11:54.261Z,1010.19345166
2018-12-22T01:12:06.709Z,1010.2950433
2018-12-22T01:12:19.046Z,1010.2950433
2018-12-22T01:12:31.456Z,1010.2950433
2018-12-22T01:12:43.825Z,1010.2950433
2018-12-22T01:12:56.177Z,1010.2950433
2018-12-22T01:13:08.541Z,1010.22731554
2018-12-22T01:13:20.938Z,1010.22731554
2018-12-22T01:13:33.464Z,1010.22731554
2018-12-22T01:13:45.949Z,1010.22731554
2018-12-22T01:13:58.419Z,1010.22731554
2018-12-22T01:14:10.771Z,1010.2950433
2018-12-22T01:14:23.108Z,1010.2950433
2018-12-22T01:14:35.459Z,1010.2950433
2018-12-22T01:14:47.811Z,1010.2950433
2018-12-22T01:15:00.443Z,1010.2950433
2018-12-22T01:15:12.863Z,1010.32890718
2018-12-22T01:15:25.187Z,1010.32890718
2018-12-22T01:15:37.557Z,1010.32890718
2018-12-22T01:15:50.021Z,1010.32890718
2018-12-22T01:16:02.471Z,1010.32890718
2018-12-22T01:16:14.820Z,1010.32890718
2018-12-22T01:16:27.163Z,1010.32890718
2018-12-22T01:16:39.525Z,1010.32890718
2018-12-22T01:16:53.794Z,1010.32890718
2018-12-22T01:17:06.461Z,1010.36277106
2018-12-22T01:17:18.810Z,1010.36277106
2018-12-22T01:17:31.383Z,1010.36277106
2018-12-22T01:17:43.729Z,1010.36277106
2018-12-22T01:17:56.086Z,1010.36277106
2018-12-22T01:18:08.446Z,1010.36277106
2018-12-22T01:18:21.010Z,1010.36277106
2018-12-22T01:18:33.358Z,1010.36277106
2018-12-22T01:18:45.699Z,1010.36277106
2018-12-22T01:18:58.055Z,1010.36277106
2018-12-22T01:19:10.405Z,1010.39663495
2018-12-22T01:19:22.757Z,1010.39663495
2018-12-22T01:19:35.227Z,1010.39663495
2018-12-22T01:19:47.606Z,1010.39663495
2018-12-22T01:19:59.967Z,1010.39663495
2018-12-22T01:20:12.418Z,1010.32890718
2018-12-22T01:20:24.775Z,1010.32890718
2018-12-22T01:20:37.159Z,1010.32890718
2018-12-22T01:20:49.497Z,1010.32890718
2018-12-22T01:21:01.851Z,1010.2950433
2018-12-22T01:21:14.197Z,1010.2950433
2018-12-22T01:21:26.539Z,1010.2950433
2018-12-22T01:21:38.877Z,1010.2950433
2018-12-22T01:21:51.218Z,1010.2950433
2018-12-22T01:22:03.634Z,1010.39663495
2018-12-22T01:22:15.960Z,1010.39663495
2018-12-22T01:22:28.298Z,1010.39663495
2018-12-22T01:22:40.738Z,1010.39663495
2018-12-22T01:22:53.081Z,1010.39663495
2018-12-22T01:23:05.442Z,1010.53209047
2018-12-22T01:23:17.765Z,1010.53209047
2018-12-22T01:23:30.123Z,1010.53209047
2018-12-22T01:23:42.459Z,1010.53209047
2018-12-22T01:23:54.827Z,1010.53209047
2018-12-22T01:24:07.157Z,1010.53209047
2018-12-22T01:24:19.667Z,1010.53209047
2018-12-22T01:24:32.026Z,1010.53209047
2018-12-22T01:24:44.353Z,1010.53209047
2018-12-22T01:24:56.705Z,1010.53209047
2018-12-22T01:25:09.106Z,1010.63368212
2018-12-22T01:25:21.460Z,1010.63368212
2018-12-22T01:25:33.833Z,1010.63368212
2018-12-22T01:25:46.170Z,1010.63368212
2018-12-22T01:25:58.751Z,1010.63368212
2018-12-22T01:26:11.120Z,1010.49822659
2018-12-22T01:26:23.469Z,1010.49822659
2018-12-22T01:26:35.840Z,1010.49822659
2018-12-22T01:26:48.522Z,1010.49822659
2018-12-22T01:27:00.906Z,1010.667546
2018-12-22T01:27:13.333Z,1010.667546
2018-12-22T01:27:25.673Z,1010.667546
2018-12-22T01:27:38.017Z,1010.667546
2018-12-22T01:27:50.375Z,1010.667546
2018-12-22T01:28:02.750Z,1010.59981824
2018-12-22T01:28:15.196Z,1010.59981824
2018-12-22T01:28:27.539Z,1010.59981824
2018-12-22T01:28:48.351Z,1010.59981824
2018-12-22T01:29:00.686Z,1010.59981824
2018-12-22T01:29:13.067Z,1010.63368212
2018-12-22T01:29:25.394Z,1010.63368212
2018-12-22T01:29:37.773Z,1010.63368212
2018-12-22T01:29:50.119Z,1010.63368212
2018-12-22T01:30:02.450Z,1010.56595435
2018-12-22T01:30:14.814Z,1010.56595435
2018-12-22T01:30:27.394Z,1010.56595435
2018-12-22T01:30:39.746Z,1010.56595435
2018-12-22T01:30:52.101Z,1010.56595435
2018-12-22T01:31:04.443Z,1010.49822659
2018-12-22T01:31:16.788Z,1010.49822659
2018-12-22T01:31:29.132Z,1010.49822659
2018-12-22T01:31:41.485Z,1010.49822659
2018-12-22T01:31:53.920Z,1010.49822659
2018-12-22T01:32:06.271Z,1010.49822659
2018-12-22T01:32:18.728Z,1010.49822659
2018-12-22T01:32:31.095Z,1010.49822659
2018-12-22T01:32:43.441Z,1010.49822659
2018-12-22T01:32:55.785Z,1010.49822659
2018-12-22T01:33:08.130Z,1010.56595435
2018-12-22T01:33:20.491Z,1010.56595435
2018-12-22T01:33:32.830Z,1010.56595435
2018-12-22T01:33:45.190Z,1010.56595435
2018-12-22T01:33:57.530Z,1010.56595435
2018-12-22T01:34:09.912Z,1010.53209047
2018-12-22T01:34:22.251Z,1010.53209047
2018-12-22T01:34:34.737Z,1010.53209047
2018-12-22T01:34:47.196Z,1010.53209047
2018-12-22T01:34:59.726Z,1010.53209047
2018-12-22T01:35:12.057Z,1010.667546
2018-12-22T01:35:24.411Z,1010.667546
2018-12-22T01:35:36.751Z,1010.667546
2018-12-22T01:35:49.085Z,1010.667546
2018-12-22T01:36:01.541Z,1010.56595435
2018-12-22T01:36:13.876Z,1010.56595435
2018-12-22T01:36:26.220Z,1010.56595435
2018-12-22T01:36:38.719Z,1010.56595435
2018-12-22T01:36:51.143Z,1010.56595435
2018-12-22T01:37:03.469Z,1010.53209047
2018-12-22T01:37:15.801Z,1010.53209047
2018-12-22T01:37:28.143Z,1010.53209047
2018-12-22T01:37:40.480Z,1010.53209047
2018-12-22T01:37:52.820Z,1010.53209047
2018-12-22T01:38:05.153Z,1010.49822659
2018-12-22T01:38:17.482Z,1010.49822659
2018-12-22T01:38:29.823Z,1010.49822659
2018-12-22T01:38:42.154Z,1010.49822659
2018-12-22T01:38:54.491Z,1010.49822659
2018-12-22T01:39:06.849Z,1010.56595435
2018-12-22T01:39:19.336Z,1010.56595435
2018-12-22T01:39:31.776Z,1010.56595435
2018-12-22T01:39:44.118Z,1010.56595435
2018-12-22T01:39:56.632Z,1010.56595435
2018-12-22T01:40:09.015Z,1010.56595435
2018-12-22T01:40:21.358Z,1010.56595435
2018-12-22T01:40:33.710Z,1010.56595435
2018-12-22T01:40:46.047Z,1010.56595435
2018-12-22T01:40:58.377Z,1010.56595435
2018-12-22T01:41:10.957Z,1010.56595435
2018-12-22T01:41:23.296Z,1010.56595435
2018-12-22T01:41:35.675Z,1010.56595435
2018-12-22T01:41:48.018Z,1010.56595435
2018-12-22T01:42:00.371Z,1010.56595435
2018-12-22T01:42:12.710Z,1010.59981824
2018-12-22T01:42:25.069Z,1010.59981824
2018-12-22T01:42:37.410Z,1010.59981824
2018-12-22T01:42:49.762Z,1010.59981824
2018-12-22T01:43:02.110Z,1010.59981824
2018-12-22T01:43:14.446Z,1010.59981824
2018-12-22T01:43:26.830Z,1010.59981824
2018-12-22T01:43:39.162Z,1010.59981824
2018-12-22T01:43:51.508Z,1010.59981824
2018-12-22T01:44:03.860Z,1010.56595435
2018-12-22T01:44:16.198Z,1010.56595435
2018-12-22T01:44:28.595Z,1010.56595435
2018-12-22T01:44:40.959Z,1010.56595435
2018-12-22T01:44:53.308Z,1010.56595435
2018-12-22T01:45:05.668Z,1010.49822659
2018-12-22T01:45:17.994Z,1010.49822659
2018-12-22T01:45:30.355Z,1010.49822659
2018-12-22T01:45:42.847Z,1010.49822659
2018-12-22T01:45:55.285Z,1010.49822659
2018-12-22T01:46:07.746Z,1010.56595435
2018-12-22T01:46:20.087Z,1010.56595435
2018-12-22T01:46:32.427Z,1010.56595435
2018-12-22T01:46:44.764Z,1010.56595435
2018-12-22T01:46:57.124Z,1010.56595435
2018-12-22T01:47:09.448Z,1010.56595435
2018-12-22T01:47:21.802Z,1010.56595435
2018-12-22T01:47:34.150Z,1010.56595435
2018-12-22T01:47:46.519Z,1010.56595435
2018-12-22T01:47:58.895Z,1010.56595435
2018-12-22T01:48:11.228Z,1010.70140988
2018-12-22T01:48:23.567Z,1010.70140988
2018-12-22T01:48:35.907Z,1010.70140988
2018-12-22T01:48:48.250Z,1010.70140988
2018-12-22T01:49:00.601Z,1010.70140988
2018-12-22T01:49:13.077Z,1010.53209047
2018-12-22T01:49:27.740Z,1010.53209047
2018-12-22T01:49:40.148Z,1010.53209047
2018-12-22T01:49:52.491Z,1010.53209047
2018-12-22T01:50:04.997Z,1010.56595435
2018-12-22T01:50:17.343Z,1010.56595435
2018-12-22T01:50:29.705Z,1010.56595435
2018-12-22T01:50:42.054Z,1010.56595435
2018-12-22T01:50:54.411Z,1010.56595435
2018-12-22T01:51:06.752Z,1010.63368212
2018-12-22T01:51:19.217Z,1010.63368212
2018-12-22T01:51:31.579Z,1010.63368212
2018-12-22T01:51:43.934Z,1010.63368212
2018-12-22T01:51:56.261Z,1010.63368212
2018-12-22T01:52:08.748Z,1010.70140988
2018-12-22T01:52:21.174Z,1010.70140988
2018-12-22T01:52:33.612Z,1010.70140988
2018-12-22T01:52:45.955Z,1010.70140988
2018-12-22T01:52:58.301Z,1010.70140988
2018-12-22T01:53:10.634Z,1010.73527376
2018-12-22T01:53:22.970Z,1010.73527376
2018-12-22T01:53:35.310Z,1010.73527376
2018-12-22T01:53:47.668Z,1010.73527376
2018-12-22T01:54:00.020Z,1010.73527376
2018-12-22T01:54:12.432Z,1010.667546
2018-12-22T01:54:24.863Z,1010.667546
2018-12-22T01:54:37.213Z,1010.667546
2018-12-22T01:54:49.559Z,1010.667546
2018-12-22T01:55:01.913Z,1010.70140988
2018-12-22T01:55:14.478Z,1010.70140988
2018-12-22T01:55:26.940Z,1010.70140988
2018-12-22T01:55:39.285Z,1010.70140988
2018-12-22T01:55:51.602Z,1010.70140988
2018-12-22T01:56:03.942Z,1010.76913764
2018-12-22T01:56:16.280Z,1010.76913764
2018-12-22T01:56:28.737Z,1010.76913764
2018-12-22T01:56:41.065Z,1010.76913764
2018-12-22T01:56:53.730Z,1010.76913764
2018-12-22T01:57:06.059Z,1010.76913764
2018-12-22T01:57:18.408Z,1010.76913764
2018-12-22T01:57:30.750Z,1010.76913764
2018-12-22T01:57:43.077Z,1010.76913764
2018-12-22T01:57:55.422Z,1010.76913764
2018-12-22T01:58:07.761Z,1010.70140988
2018-12-22T01:58:20.104Z,1010.70140988
2018-12-22T01:58:32.442Z,1010.70140988
2018-12-22T01:58:53.443Z,1010.70140988
2018-12-22T01:59:05.797Z,1010.70140988
2018-12-22T01:59:18.157Z,1010.70140988
2018-12-22T01:59:30.497Z,1010.70140988
2018-12-22T01:59:42.891Z,1010.70140988
2018-12-22T01:59:55.220Z,1010.70140988
2018-12-22T02:00:07.589Z,1010.667546
2018-12-22T02:00:19.946Z,1010.667546
2018-12-22T02:00:32.305Z,1010.667546
2018-12-22T02:00:44.680Z,1010.667546
2018-12-22T02:00:57.029Z,1010.667546
2018-12-22T02:01:09.372Z,1010.76913764
2018-12-22T02:01:21.731Z,1010.76913764
2018-12-22T02:01:34.088Z,1010.76913764
2018-12-22T02:01:46.433Z,1010.76913764
2018-12-22T02:01:58.810Z,1010.76913764
2018-12-22T02:02:11.167Z,1010.76913764
2018-12-22T02:02:23.527Z,1010.76913764
2018-12-22T02:02:35.862Z,1010.76913764
2018-12-22T02:02:48.209Z,1010.76913764
2018-12-22T02:03:00.558Z,1010.76913764
2018-12-22T02:03:12.942Z,1010.87072929
2018-12-22T02:03:25.293Z,1010.87072929
2018-12-22T02:03:37.638Z,1010.87072929
2018-12-22T02:03:50.117Z,1010.87072929
2018-12-22T02:04:02.478Z,1010.73527376
2018-12-22T02:04:14.828Z,1010.73527376
2018-12-22T02:04:27.176Z,1010.73527376
2018-12-22T02:04:39.587Z,1010.73527376
2018-12-22T02:04:52.004Z,1010.73527376
2018-12-22T02:05:04.345Z,1010.70140988
2018-12-22T02:05:16.687Z,1010.70140988
2018-12-22T02:05:29.107Z,1010.70140988
2018-12-22T02:05:41.457Z,1010.70140988
2018-12-22T02:05:53.817Z,1010.70140988
2018-12-22T02:06:06.160Z,1010.73527376
2018-12-22T02:06:18.514Z,1010.73527376
2018-12-22T02:06:31.004Z,1010.73527376
2018-12-22T02:06:43.349Z,1010.73527376
2018-12-22T02:06:55.692Z,1010.73527376
2018-12-22T02:07:08.144Z,1010.83686541
2018-12-22T02:07:20.491Z,1010.83686541
2018-12-22T02:07:32.833Z,1010.83686541
2018-12-22T02:07:45.187Z,1010.83686541
2018-12-22T02:07:57.520Z,1010.83686541